Time;durP1;ratioP1;P1;durP2;ratioP2;P2;SDS_P1;SDS_P2;PMS_P1;PMS_P2;Temp;Humidity;BMP_temperature;BMP_pressure;BME280_temperature;BME280_humidity;BME280_pressure;Samples;Min_cycle;Max_cycle;Signal;HPM_P1;HPM_P2
2022/09/24 00:03:05;;;;;;;;;;;;;;;9.97;100.00;95430.69;10561722;28;2277;-72
2022/09/24 00:08:08;;;;;;;;;;;;;;;9.94;100.00;95440.09;10559308;28;2122;-73
2022/09/24 00:13:12;;;;;;;;;;;;;;;9.91;100.00;95427.22;10554411;28;2192;-73
2022/09/24 00:18:15;;;;;;;;;;;;;;;10.02;100.00;95419.91;10559447;28;2166;-72
2022/09/24 00:23:23;;;;;;;;;;;;;;;10.07;100.00;95417.19;10560082;28;2104;-72
2022/09/24 00:28:27;;;;;;;;;;;;;;;10.11;100.00;95418.22;10554618;28;2223;-72
2022/09/24 00:33:32;;;;;;;;;;;;;;;10.11;100.00;95418.22;10556364;28;2149;-73
2022/09/24 00:38:35;;;;;;;;;;;;;;;10.21;100.00;95420.84;10559468;28;2187;-76
2022/09/24 00:43:38;;;;;;;;;;;;;;;10.28;100.00;95407.94;10555293;28;2132;-72
2022/09/24 00:48:42;;;;;;;;;;;;;;;10.27;100.00;95403.66;10554308;28;2254;-73
2022/09/24 00:53:45;;;;;;;;;;;;;;;10.24;100.00;95401.53;10570272;28;2154;-73
2022/09/24 00:58:50;;;;;;;;;;;;;;;10.20;100.00;95400.44;10596258;28;2277;-72
2022/09/24 01:03:56;;;;;;;;;;;;;;;10.11;100.00;95391.38;10600977;28;2198;-71
2022/09/24 01:09:00;;;;;;;;;;;;;;;10.01;100.00;95391.47;10572972;28;2183;-72
2022/09/24 01:14:03;;;;;;;;;;;;;;;9.97;100.00;95380.47;10568380;28;2158;-73
2022/09/24 01:19:08;;;;;;;;;;;;;;;9.92;100.00;95383.16;10571597;28;2191;-73
2022/09/24 01:24:11;;;;;;;;;;;;;;;9.91;100.00;95378.09;10579212;28;2201;-73
2022/09/24 01:29:14;;;;;;;;;;;;;;;9.94;100.00;95369.50;10575657;28;2208;-73
2022/09/24 01:34:18;;;;;;;;;;;;;;;9.88;100.00;95365.25;10570909;28;2201;-75
2022/09/24 01:39:21;;;;;;;;;;;;;;;9.80;100.00;95365.81;10567639;28;2179;-73
2022/09/24 01:44:25;;;;;;;;;;;;;;;9.72;100.00;95356.47;10574570;28;2160;-72
2022/09/24 01:49:29;;;;;;;;;;;;;;;9.60;100.00;95358.69;10574576;28;2152;-73
2022/09/24 01:54:32;;;;;;;;;;;;;;;9.59;100.00;95347.16;10570355;28;2207;-73
2022/09/24 01:59:36;;;;;;;;;;;;;;;9.63;100.00;95342.84;10566204;28;2310;-74
2022/09/24 02:04:40;;;;;;;;;;;;;;;9.70;100.00;95340.66;10566731;28;2193;-71
2022/09/24 02:09:43;;;;;;;;;;;;;;;9.67;100.00;95326.97;10570050;28;2188;-72
2022/09/24 02:14:47;;;;;;;;;;;;;;;9.66;100.00;95331.53;10555849;28;2197;-72
2022/09/24 02:19:50;;;;;;;;;;;;;;;9.60;100.00;95332.66;10568376;28;2312;-72
2022/09/24 02:24:53;;;;;;;;;;;;;;;9.51;100.00;95315.53;10569099;28;2193;-73
2022/09/24 02:29:57;;;;;;;;;;;;;;;9.48;100.00;95319.59;10566158;28;2203;-72
2022/09/24 02:35:01;;;;;;;;;;;;;;;9.46;100.00;95308.31;10561165;28;2174;-72
2022/09/24 02:40:04;;;;;;;;;;;;;;;9.44;100.00;95313.16;10568526;28;2216;-72
2022/09/24 02:45:08;;;;;;;;;;;;;;;9.47;100.00;95314.47;10566792;28;2249;-73
2022/09/24 02:50:11;;;;;;;;;;;;;;;9.52;100.00;95308.28;10569333;28;2238;-73
2022/09/24 02:55:15;;;;;;;;;;;;;;;9.48;100.00;95308.88;10551592;28;2193;-72
2022/09/24 03:00:19;;;;;;;;;;;;;;;9.51;100.00;95302.13;10567050;28;2276;-73
2022/09/24 03:05:23;;;;;;;;;;;;;;;9.69;100.00;95301.47;10560275;28;2186;-73
2022/09/24 03:10:26;;;;;;;;;;;;;;;9.68;100.00;95297.19;10564493;28;2144;-74
2022/09/24 03:15:29;;;;;;;;;;;;;;;9.77;100.00;95293.91;10570381;28;2179;-73
2022/09/24 03:20:32;;;;;;;;;;;;;;;9.84;100.00;95302.44;10566971;28;2312;-71
2022/09/24 03:25:36;;;;;;;;;;;;;;;9.96;100.00;95308.25;10557427;28;2191;-72
2022/09/24 03:36:00;;;;;;;;;;;;;;;10.15;100.00;95305.69;10562120;28;2166;-76
2022/09/24 03:41:03;;;;;;;;;;;;;;;10.20;100.00;95303.75;10563690;28;2153;-73
2022/09/24 03:46:07;;;;;;;;;;;;;;;10.25;100.00;95301.06;10565408;28;2202;-72
2022/09/24 03:51:10;;;;;;;;;;;;;;;10.36;100.00;95295.56;10557364;28;2205;-76
2022/09/24 03:56:13;;;;;;;;;;;;;;;10.42;100.00;95291.75;10567191;28;2223;-73
2022/09/24 04:01:19;;;;;;;;;;;;;;;10.43;100.00;95293.34;10567250;28;2269;-72
2022/09/24 04:06:25;;;;;;;;;;;;;;;10.45;100.00;95289.31;10563318;28;2194;-73
2022/09/24 04:11:29;;;;;;;;;;;;;;;10.53;100.00;95275.25;10544091;28;2140;-74
2022/09/24 04:16:32;;;;;;;;;;;;;;;10.60;100.00;95263.34;10562755;28;2184;-74
2022/09/24 04:21:35;;;;;;;;;;;;;;;10.66;100.00;95267.59;10553915;28;2252;-78
2022/09/24 04:26:39;;;;;;;;;;;;;;;10.70;100.00;95255.19;10557582;28;2192;-75
2022/09/24 04:31:42;;;;;;;;;;;;;;;10.71;100.00;95262.97;10551738;28;2184;-74
2022/09/24 04:36:46;;;;;;;;;;;;;;;10.76;100.00;95262.91;10566170;28;2315;-75
2022/09/24 04:41:49;;;;;;;;;;;;;;;10.77;100.00;95261.81;10564864;28;2188;-73
2022/09/24 04:46:56;;;;;;;;;;;;;;;10.88;100.00;95264.38;10569316;27;2198;-74
2022/09/24 04:51:59;;;;;;;;;;;;;;;10.92;100.00;95260.03;10573370;28;2167;-77
2022/09/24 04:57:03;;;;;;;;;;;;;;;11.00;100.00;95254.00;10563859;28;2259;-76
2022/09/24 05:02:07;;;;;;;;;;;;;;;10.96;100.00;95253.78;10567285;28;2156;-74
2022/09/24 05:07:12;;;;;;;;;;;;;;;11.00;100.00;95249.41;10573018;28;2231;-74
2022/09/24 05:12:15;;;;;;;;;;;;;;;10.93;100.00;95248.19;10566531;28;2234;-73
2022/09/24 05:17:19;;;;;;;;;;;;;;;10.87;100.00;95247.44;10567872;28;2259;-72
2022/09/24 05:22:22;;;;;;;;;;;;;;;10.83;100.00;95252.59;10568667;27;2162;-73
2022/09/24 05:27:25;;;;;;;;;;;;;;;10.87;100.00;95252.81;10568093;28;2162;-71
2022/09/24 05:32:29;;;;;;;;;;;;;;;11.01;100.00;95255.63;10552317;28;2193;-71
2022/09/24 05:37:32;;;;;;;;;;;;;;;11.24;100.00;95257.44;10572103;28;2225;-73
2022/09/24 05:42:35;;;;;;;;;;;;;;;11.51;100.00;95256.00;10569580;28;2258;-72
2022/09/24 05:47:38;;;;;;;;;;;;;;;11.64;100.00;95249.88;10562008;28;2192;-72
2022/09/24 05:52:41;;;;;;;;;;;;;;;11.76;100.00;95246.72;10541432;28;2281;-74
2022/09/24 05:57:45;;;;;;;;;;;;;;;12.04;100.00;95251.16;10561936;28;2036;-73
2022/09/24 06:02:49;;;;;;;;;;;12.60;99.90;;;12.37;100.00;95251.94;10547800;28;1957;-73
2022/09/24 06:07:52;;;;;;;;;;;;;;;12.69;100.00;95247.56;10566117;28;1903;-75
2022/09/24 06:12:57;;;;;;;;;;;;;;;12.84;100.00;95246.44;10570011;28;1985;-73
2022/09/24 06:18:00;;;;;;;;;;;13.40;99.90;;;12.90;100.00;95254.16;10563050;28;2037;-73
2022/09/24 06:23:03;;;;;;;;;;;13.70;99.90;;;13.23;100.00;95251.34;10565721;28;2060;-72
2022/09/24 06:28:06;;;;;;;;;;;;;;;13.48;100.00;95258.09;10565054;28;1868;-69
2022/09/24 06:33:09;;;;;;;;;;;;;;;13.84;100.00;95255.38;10569004;28;1967;-69
2022/09/24 06:38:12;;;;;;;;;;;14.40;99.90;;;14.19;100.00;95252.91;10564847;28;1997;-68
2022/09/24 06:43:17;;;;;;;;;;;;;;;14.58;100.00;95253.00;10561943;28;2029;-68
2022/09/24 06:48:21;;;;;;;;;;;;;;;14.56;100.00;95260.59;10562987;28;1934;-69
2022/09/24 06:53:25;;;;;;;;;;;;;;;14.41;100.00;95271.81;10558055;28;2044;-69
2022/09/24 06:58:28;;;;;;;;;;;;;;;14.54;100.00;95270.94;10567868;27;1993;-68
2022/09/24 07:03:31;;;;;;;;;;;15.10;99.90;;;14.45;100.00;95264.69;10561871;28;2048;-69
2022/09/24 07:08:34;;;;;;;;;;;;;;;14.84;100.00;95271.25;10565384;28;2035;-67
2022/09/24 07:13:38;;;;;;;;;;;;;;;15.02;100.00;95266.69;10567542;28;1971;-68
2022/09/24 07:18:41;;;;;;;;;;;;;;;14.49;100.00;95270.28;10564650;28;1975;-70
2022/09/24 07:23:44;;;;;;;;;;;;;;;14.44;100.00;95273.91;10560587;28;1977;-70
2022/09/24 07:28:47;;;;;;;;;;;15.20;99.90;;;14.47;100.00;95277.91;10560670;28;2040;-69
2022/09/24 07:33:50;;;;;;;;;;;15.30;99.90;;;14.47;100.00;95277.91;10563993;28;2068;-68
2022/09/24 07:38:53;;;;;;;;;;;15.20;99.90;;;14.52;100.00;95284.00;10569921;28;2035;-68
2022/09/24 07:43:56;;;;;;;;;;;15.20;99.90;;;14.40;100.00;95294.53;10560671;28;2145;-67
2022/09/24 07:48:59;;;;;;;;;;;15.20;99.90;;;14.25;100.00;95290.31;10563736;28;1860;-68
2022/09/24 07:54:01;;;;;;;;;;;15.10;99.90;;;13.95;100.00;95302.66;10554138;28;2024;-69
2022/09/24 07:59:05;;;;;;;;;;;14.90;99.90;;;13.75;100.00;95316.66;10560476;28;2096;-76
2022/09/24 08:04:08;;;;;;;;;;;14.70;99.90;;;13.50;100.00;95321.50;10554582;28;2096;-75
2022/09/24 08:09:11;;;;;;;;;;;14.50;99.90;;;13.21;100.00;95323.72;10559735;28;1840;-70
2022/09/24 08:14:13;;;;;;;;;;;14.40;99.90;;;12.88;100.00;95334.56;10557829;28;1777;-71
2022/09/24 08:19:16;;;;;;;;;;;14.00;99.90;;;12.51;100.00;95343.59;10569992;28;2042;-73
2022/09/24 08:24:19;;;;;;;;;;;13.50;99.90;;;12.37;100.00;95348.97;10566624;28;1989;-76
2022/09/24 08:29:22;;;;;;;;;;;13.20;99.90;;;12.42;100.00;95348.09;10569703;28;1931;-69
2022/09/24 08:34:25;;;;;;;;;;;13.20;99.90;;;12.58;100.00;95351.31;10573877;28;1969;-69
2022/09/24 08:39:28;;;;;;;;;;;13.20;99.90;;;12.84;100.00;95347.06;10568521;28;1930;-69
2022/09/24 08:49:51;;;;;;;;;;;13.50;99.90;;;13.20;100.00;95354.47;10567873;28;2041;-69
2022/09/24 08:54:54;;;;;;;;;;;13.70;99.90;;;13.42;100.00;95349.22;10564865;28;1997;-69
2022/09/24 08:59:57;;;;;;;;;;;13.90;99.90;;;13.56;100.00;95346.50;10567050;28;1946;-69
2022/09/24 09:05:00;;;;;;;;;;;14.10;99.90;;;14.17;100.00;95355.13;10562824;28;1794;-70
2022/09/24 09:10:04;;;;;;;;;;;14.40;99.90;;;14.42;100.00;95362.63;10555224;28;2076;-69
2022/09/24 09:15:07;;;;;;;;;;;14.80;99.90;;;14.68;100.00;95372.84;10566584;28;2166;-69
2022/09/24 09:20:10;;;;;;;;;;;15.00;99.90;;;14.84;100.00;95365.94;10570852;28;2072;-74
2022/09/24 09:25:17;;;;;;;;;;;15.20;99.90;;;15.03;100.00;95361.13;10562385;28;1981;-69
2022/09/24 09:30:20;;;;;;;;;;;15.50;99.90;;;15.29;100.00;95363.13;10565680;28;2045;-69
2022/09/24 09:35:23;;;;;;;;;;;15.70;99.90;;;15.45;100.00;95353.44;10566704;28;2061;-69
2022/09/24 09:40:26;;;;;;;;;;;15.90;99.90;;;15.44;100.00;95354.56;10571457;28;1934;-69
2022/09/24 09:45:33;;;;;;;;;;;16.00;99.90;;;15.05;100.00;95364.31;10567576;28;2017;-69
2022/09/24 09:50:36;;;;;;;;;;;15.90;99.90;;;15.14;100.00;95362.44;10573301;28;2025;-69
2022/09/24 09:55:39;;;;;;;;;;;15.70;99.90;;;14.71;100.00;95364.13;10567036;28;2039;-69
2022/09/24 10:00:42;;;;;;;;;;;15.60;99.90;;;14.39;100.00;95363.25;10567928;28;2025;-70
2022/09/24 10:05:45;;;;;;;;;;;15.50;99.90;;;14.36;100.00;95363.06;10566487;28;1965;-69
2022/09/24 10:10:48;;;;;;;;;;;15.30;99.90;;;14.22;100.00;95369.31;10563463;28;2097;-69
2022/09/24 10:15:51;;;;;;;;;;;15.10;99.90;;;14.22;100.00;95379.34;10566609;28;2060;-69
2022/09/24 10:20:55;;;;;;;;;;;15.00;99.90;;;14.15;100.00;95373.56;10564629;28;1830;-71
2022/09/24 10:25:58;;;;;;;;;;;15.00;99.90;;;14.17;100.00;95371.34;10563037;28;1727;-69
2022/09/24 10:31:01;;;;;;;;;;;15.00;99.90;;;14.50;100.00;95364.63;10570131;28;1838;-69
2022/09/24 10:36:04;;;;;;;;;;;15.10;99.90;;;14.76;100.00;95372.09;10568070;28;1983;-69
2022/09/24 10:41:07;;;;;;;;;;;15.30;99.90;;;14.57;100.00;95367.72;10543818;28;1914;-69
2022/09/24 10:46:11;;;;;;;;;;;15.30;99.90;;;14.41;100.00;95369.16;10565898;28;2021;-70
2022/09/24 10:51:13;;;;;;;;;;;15.20;99.90;;;13.97;100.00;95378.81;10559354;28;1906;-68
2022/09/24 10:56:16;;;;;;;;;;;15.00;99.90;;;13.77;100.00;95373.84;10567434;28;1930;-69
2022/09/24 11:01:19;;;;;;;;;;;14.70;99.90;;;13.66;100.00;95378.66;10560586;28;2028;-68
2022/09/24 11:06:22;;;;;;;;;;;14.60;99.90;;;13.73;100.00;95389.06;10560062;28;2045;-69
2022/09/24 11:11:25;;;;;;;;;;;14.60;99.90;;;13.82;100.00;95387.25;10551649;28;2005;-69
2022/09/24 11:16:28;;;;;;;;;;;14.50;99.90;;;13.74;100.00;95388.78;10562918;28;2133;-68
2022/09/24 11:21:31;;;;;;;;;;;14.60;99.90;;;13.78;100.00;95391.66;10559071;28;1902;-68
2022/09/24 11:26:34;;;;;;;;;;;14.50;99.90;;;13.93;100.00;95383.25;10553131;28;2018;-68
2022/09/24 11:31:37;;;;;;;;;;;14.60;99.90;;;14.01;100.00;95385.22;10562664;28;1977;-69
2022/09/24 11:36:40;;;;;;;;;;;14.70;99.90;;;14.25;100.00;95368.72;10551659;28;2056;-69
2022/09/24 11:41:42;;;;;;;;;;;14.80;99.90;;;14.48;100.00;95372.25;10559909;28;2069;-70
2022/09/24 11:46:46;;;;;;;;;;;15.00;99.90;;;14.45;100.00;95366.63;10559915;28;2111;-78
2022/09/24 11:51:49;;;;;;;;;;;15.10;99.90;;;14.59;100.00;95362.78;10560701;28;1984;-75
2022/09/24 11:56:52;;;;;;;;;;;15.30;99.90;;;14.71;100.00;95356.00;10559827;28;1917;-69
2022/09/24 12:01:55;;;;;;;;;;;15.30;99.90;;;14.94;100.00;95357.56;10559745;28;1918;-69
2022/09/24 12:06:58;;;;;;;;;;;15.40;99.90;;;15.22;100.00;95357.38;10561531;28;1977;-69
2022/09/24 12:12:01;;;;;;;;;;;15.70;99.90;;;14.91;100.00;95352.78;10561126;28;2017;-68
2022/09/24 12:17:04;;;;;;;;;;;15.70;99.90;;;14.84;100.00;95352.44;10565834;28;1910;-69
2022/09/24 12:22:07;;;;;;;;;;;15.50;99.90;;;15.28;100.00;95351.50;10551347;28;2025;-69
2022/09/24 12:27:10;;;;;;;;;;;15.70;99.90;;;15.24;100.00;95347.03;10556411;28;1992;-70
2022/09/24 12:37:34;;;;;;;;;;;;;;;15.76;100.00;95329.00;10556485;28;2052;-69
2022/09/24 12:42:36;;;;;;;;;;;16.20;99.90;;;15.60;100.00;95331.34;10559251;28;2229;-70
2022/09/24 12:47:39;;;;;;;;;;;16.30;99.90;;;15.70;100.00;95314.00;10555598;28;1948;-74
2022/09/24 12:52:43;;;;;;;;;;;16.40;99.90;;;16.15;100.00;95314.50;10547467;28;1983;-69
2022/09/24 12:57:46;;;;;;;;;;;16.60;99.90;;;16.33;100.00;95317.22;10563026;28;1995;-69
2022/09/24 13:02:49;;;;;;;;;;;16.90;99.90;;;16.73;100.00;95310.47;10557288;28;2123;-69
2022/09/24 13:07:52;;;;;;;;;;;;;;;16.99;100.00;95304.16;10564816;28;2053;-68
2022/09/24 13:12:56;;;;;;;;;;;;;;;16.90;100.00;95303.38;10568745;28;1802;-69
2022/09/24 13:17:59;;;;;;;;;;;;;;;16.56;100.00;95315.13;10567820;28;2109;-72
2022/09/24 13:23:02;;;;;;;;;;;;;;;16.70;100.00;95304.88;10566950;28;1873;-69
2022/09/24 13:28:06;;;;;;;;;;;;;;;17.33;100.00;95302.41;10567573;28;2094;-69
2022/09/24 13:33:09;;;;;;;;;;;;;;;17.35;100.00;95305.59;10545215;28;1983;-70
2022/09/24 13:38:12;;;;;;;;;;;;;;;17.05;100.00;95300.16;10574001;28;1921;-69
2022/09/24 13:43:16;;;;;;;;;;;;;;;16.71;100.00;95299.13;10569929;27;2061;-68
2022/09/24 13:48:19;;;;;;;;;;;;;;;16.62;100.00;95297.53;10564874;28;1941;-68
2022/09/24 13:53:23;;;;;;;;;;;;;;;16.44;100.00;95299.50;10566079;28;1959;-68
2022/09/24 13:58:26;;;;;;;;;;;;;;;16.46;100.00;95291.81;10568541;28;1898;-68
2022/09/24 14:03:29;;;;;;;;;;;;;;;16.75;100.00;95289.22;10563264;28;1755;-69
2022/09/24 14:08:33;;;;;;;;;;;;;;;16.60;100.00;95281.56;10565923;28;2113;-69
2022/09/24 14:13:44;;;;;;;;;;;;;;;16.49;100.00;95288.47;10567969;28;1829;-71
2022/09/24 14:18:48;;;;;;;;;;;;;;;16.48;100.00;95295.03;10561822;28;1936;-69
2022/09/24 14:23:51;;;;;;;;;;;;;;;16.29;100.00;95289.94;10555693;28;2152;-73
2022/09/24 14:28:54;;;;;;;;;;;;;;;16.25;100.00;95294.41;10568657;28;2095;-70
2022/09/24 14:33:57;;;;;;;;;;;;;;;16.06;100.00;95294.75;10563966;28;1909;-71
2022/09/24 14:39:00;;;;;;;;;;;;;;;16.08;100.00;95275.44;10558948;28;2070;-69
2022/09/24 14:44:04;;;;;;;;;;;;;;;16.22;100.00;95284.19;10564217;28;2087;-74
2022/09/24 14:49:07;;;;;;;;;;;;;;;16.26;100.00;95273.50;10562417;28;2120;-69
2022/09/24 14:54:10;;;;;;;;;;;;;;;15.92;100.00;95283.28;10565434;28;1969;-70
2022/09/24 14:59:14;;;;;;;;;;;;;;;15.79;100.00;95286.94;10568242;28;2029;-72
2022/09/24 15:04:18;;;;;;;;;;;;;;;15.50;100.00;95279.38;10556084;28;1971;-70
2022/09/24 15:09:22;;;;;;;;;;;;;;;15.29;100.00;95285.41;10562772;28;2034;-69
2022/09/24 15:14:26;;;;;;;;;;;;;;;15.17;100.00;95284.41;10562206;28;1940;-68
2022/09/24 15:19:31;;;;;;;;;;;;;;;15.02;100.00;95283.72;10561828;28;1964;-70
2022/09/24 15:24:35;;;;;;;;;;;;;;;14.54;100.00;95289.88;10559697;28;1913;-70
2022/09/24 15:29:38;;;;;;;;;;;;;;;14.18;100.00;95291.84;10558984;28;1951;-76
2022/09/24 15:34:41;;;;;;;;;;;;;;;13.93;100.00;95296.78;10564751;28;1947;-74
2022/09/24 15:39:48;;;;;;;;;;;;;;;13.76;100.00;95293.94;10564665;28;2017;-74
2022/09/24 15:44:51;;;;;;;;;;;;;;;13.61;100.00;95294.25;10568466;28;1878;-70
2022/09/24 15:49:54;;;;;;;;;;;;;;;13.53;100.00;95298.47;10565288;28;2053;-70
2022/09/24 15:54:57;;;;;;;;;;;;;;;13.40;100.00;95294.69;10560582;28;2049;-71
2022/09/24 16:00:01;;;;;;;;;;;;;;;13.35;100.00;95296.72;10563689;28;1964;-71
2022/09/24 16:05:04;;;;;;;;;;;;;;;13.32;100.00;95281.94;10565772;28;1904;-70
2022/09/24 16:10:07;;;;;;;;;;;;;;;13.35;100.00;95285.91;10563549;28;2574;-71
2022/09/24 16:15:10;;;;;;;;;;;;;;;13.32;100.00;95281.94;10565601;28;1873;-77
2022/09/24 16:20:14;;;;;;;;;;;;;;;13.34;100.00;95285.13;10560841;28;2057;-70
2022/09/24 16:25:17;;;;;;;;;;;;;;;13.24;100.00;95279.94;10565242;28;1929;-73
2022/09/24 16:30:20;;;;;;;;;;;;;;;13.25;100.00;95281.53;10564476;28;2037;-71
2022/09/24 16:35:24;;;;;;;;;;;;;;;13.12;100.00;95282.31;10559710;28;1972;-71
2022/09/24 16:40:27;;;;;;;;;;;;;;;13.08;100.00;95292.13;10559746;28;1983;-70
2022/09/24 16:45:30;;;;;;;;;;;;;;;13.08;100.00;95302.91;10564721;28;1924;-72
2022/09/24 16:50:34;;;;;;;;;;;;;;;12.97;100.00;95303.09;10561699;28;2091;-72
2022/09/24 16:55:37;;;;;;;;;;;;;;;12.83;100.00;95298.81;10556595;28;2106;-71
2022/09/24 17:00:41;;;;;;;;;;;;;;;12.81;100.00;95314.50;10571762;28;2038;-72
2022/09/24 17:05:44;;;;;;;;;;;;;;;12.77;100.00;95306.19;10570521;28;1896;-71
2022/09/24 17:10:47;;;;;;;;;;;;;;;12.71;100.00;95304.69;10572237;28;1856;-74
2022/09/24 17:15:54;;;;;;;;;;;;;;;12.75;100.00;95311.09;10563102;28;1969;-71
2022/09/24 17:20:57;;;;;;;;;;;;;;;12.79;100.00;95301.31;10557668;28;2060;-72
2022/09/24 17:26:01;;;;;;;;;;;;;;;12.66;100.00;95307.47;10565453;28;1893;-75
2022/09/24 17:31:04;;;;;;;;;;;;;;;12.68;100.00;95308.78;10571999;28;1982;-75
2022/09/24 17:36:08;;;;;;;;;;;;;;;12.69;100.00;95317.69;10566766;28;2051;-72
2022/09/24 17:41:11;;;;;;;;;;;;;;;12.70;100.00;95311.19;10563990;28;2008;-73
2022/09/24 17:46:15;;;;;;;;;;;;;;;12.62;100.00;95307.28;10551513;28;1990;-73
2022/09/24 17:51:19;;;;;;;;;;;;;;;12.68;100.00;95306.09;10563987;28;1963;-73
2022/09/24 17:56:23;;;;;;;;;;;;;;;12.70;100.00;95313.88;10560926;28;1995;-73
2022/09/24 18:01:27;;;;;;;;;;;;;;;12.72;100.00;95322.47;10563236;28;2141;-74
2022/09/24 18:06:30;;;;;;;;;;;;;;;12.65;100.00;95320.16;10562542;27;1952;-73
2022/09/24 18:11:35;;;;;;;;;;;;;;;12.67;100.00;95317.19;10563491;28;2013;-72
2022/09/24 18:16:38;;;;;;;;;;;;;;;12.58;100.00;95325.13;10545674;28;2180;-72
2022/09/24 18:21:41;;;;;;;;;;;;;;;12.56;100.00;95323.84;10559077;28;1949;-72
2022/09/24 18:26:45;;;;;;;;;;;;;;;12.55;100.00;95327.66;10563981;27;1905;-73
2022/09/24 18:31:53;;;;;;;;;;;;;;;12.53;100.00;95316.34;10563890;28;2089;-73
2022/09/24 18:36:56;;;;;;;;;;;;;;;12.65;100.00;95327.44;10563125;28;1999;-72
2022/09/24 18:42:00;;;;;;;;;;;;;;;12.66;100.00;95326.34;10557595;28;2117;-74
2022/09/24 18:47:04;;;;;;;;;;;;;;;12.62;100.00;95333.44;10565171;28;2061;-73
2022/09/24 18:52:08;;;;;;;;;;;;;;;12.59;100.00;95342.91;10560741;28;1972;-72
2022/09/24 18:57:11;;;;;;;;;;;;;;;12.60;100.00;95346.44;10562968;28;1951;-73
2022/09/24 19:02:14;;;;;;;;;;;;;;;12.59;100.00;95344.81;10563237;28;1992;-72
2022/09/24 19:07:17;;;;;;;;;;;;;;;12.54;100.00;95348.41;10549854;28;2030;-73
2022/09/24 19:12:21;;;;;;;;;;;;;;;12.47;100.00;95347.19;10546785;28;2059;-70
2022/09/24 19:17:24;;;;;;;;;;;;;;;12.59;100.00;95347.50;10564542;28;1960;-71
2022/09/24 19:22:27;;;;;;;;;;;;;;;12.69;100.00;95347.34;10554391;28;2045;-70
2022/09/24 19:27:32;;;;;;;;;;;;;;;12.66;100.00;95342.53;10561614;28;2056;-70
2022/09/24 19:32:37;;;;;;;;;;;;;;;12.60;100.00;95341.84;10553355;28;1981;-71
2022/09/24 19:37:41;;;;;;;;;;;;;;;12.63;100.00;95340.44;10560929;28;1994;-73
2022/09/24 19:42:44;;;;;;;;;;;;;;;12.60;100.00;95346.44;10557213;28;1973;-74
2022/09/24 19:47:49;;;;;;;;;;;;;;;12.65;100.00;95346.31;10563094;28;1991;-72
2022/09/24 19:52:54;;;;;;;;;;;;;;;12.66;100.00;95340.66;10534148;28;2039;-72
2022/09/24 19:58:02;;;;;;;;;;;;;;;12.73;100.00;95340.25;10556724;28;2020;-76
2022/09/24 20:03:05;;;;;;;;;;;;;;;12.70;100.00;95335.44;10560092;28;1975;-71
2022/09/24 20:08:10;;;;;;;;;;;;;;;12.67;100.00;95331.47;10560285;28;1890;-74
2022/09/24 20:13:16;;;;;;;;;;;;;;;12.73;100.00;95342.97;10558599;28;1967;-73
2022/09/24 20:18:20;;;;;;;;;;;;;;;12.65;100.00;95333.63;10577031;27;2039;-72
2022/09/24 20:23:24;;;;;;;;;;;;;;;12.64;100.00;95325.84;10563510;28;2039;-73
2022/09/24 20:28:27;;;;;;;;;;;;;;;12.68;100.00;95332.25;10556979;28;2151;-74
2022/09/24 20:33:31;;;;;;;;;;;;;;;12.65;100.00;95328.25;10566394;28;2010;-71
2022/09/24 20:38:34;;;;;;;;;;;;;;;12.61;100.00;95331.84;10563487;28;1991;-72
2022/09/24 20:43:47;;;;;;;;;;;;;;;12.55;100.00;95323.06;10565498;28;2034;-71
2022/09/24 20:48:51;;;;;;;;;;;;;;;12.55;100.00;95324.94;10566137;28;1995;-71
2022/09/24 20:53:54;;;;;;;;;;;;;;;12.47;100.00;95331.00;10564655;28;1920;-72
2022/09/24 20:58:57;;;;;;;;;;;;;;;12.45;100.00;95334.00;10547736;28;1973;-74
2022/09/24 21:04:01;;;;;;;;;;;;;;;12.54;100.00;95331.44;10570129;28;1982;-72
2022/09/24 21:09:06;;;;;;;;;;;;;;;12.57;100.00;95334.31;10563019;28;2081;-72
2022/09/24 21:14:10;;;;;;;;;;;;;;;12.57;100.00;95333.53;10567388;28;1901;-74
2022/09/24 21:19:14;;;;;;;;;;;;;;;12.54;100.00;95331.44;10569641;27;2076;-73
2022/09/24 21:24:17;;;;;;;;;;;;;;;12.48;100.00;95329.94;10567391;28;1913;-73
2022/09/24 21:29:20;;;;;;;;;;;;;;;12.47;100.00;95321.03;10565584;28;1948;-73
2022/09/24 21:34:24;;;;;;;;;;;;;;;12.53;100.00;95327.13;10564425;28;1900;-73
2022/09/24 21:39:27;;;;;;;;;;;;;;;12.51;100.00;95330.13;10564621;28;1993;-73
2022/09/24 21:44:32;;;;;;;;;;;;;;;12.49;100.00;95339.63;10567673;28;1964;-73
2022/09/24 21:49:36;;;;;;;;;;;;;;;12.38;100.00;95334.38;10562794;28;1905;-73
2022/09/24 21:54:39;;;;;;;;;;;;;;;12.41;100.00;95338.41;10564697;28;2013;-73
2022/09/24 22:00:08;;;;;;;;;;;;;;;12.40;100.00;95337.56;10562760;28;1946;-70
2022/09/24 22:05:15;;;;;;;;;;;;;;;12.34;100.00;95338.78;10565686;28;1953;-72
2022/09/24 22:10:18;;;;;;;;;;;;;;;12.34;100.00;95333.38;10568373;28;1918;-72
2022/09/24 22:15:22;;;;;;;;;;;;;;;12.31;100.00;95325.09;10552625;28;1905;-71
2022/09/24 22:20:25;;;;;;;;;;;;;;;12.24;100.00;95325.47;10562100;28;1965;-72
2022/09/24 22:25:30;;;;;;;;;;;;;;;12.23;100.00;95321.16;10549202;28;1940;-73
2022/09/24 22:30:33;;;;;;;;;;;;;;;12.10;100.00;95316.53;10567468;28;1952;-74
2022/09/24 22:35:49;;;;;;;;;;;;;;;11.99;100.00;95315.09;10565494;28;1957;-72
2022/09/24 22:40:52;;;;;;;;;;;;;;;11.97;100.00;95310.00;10565249;28;1987;-72
2022/09/24 22:45:55;;;;;;;;;;;;;;;11.89;100.00;95306.06;10564077;28;1990;-72
2022/09/24 22:50:59;;;;;;;;;;;;;;;11.77;100.00;95311.09;10579558;27;1977;-74
2022/09/24 22:56:02;;;;;;;;;;;;;;;11.66;100.00;95301.56;10567193;28;1794;-73
2022/09/24 23:01:06;;;;;;;;;;;;;;;11.51;100.00;95307.13;10567936;28;1914;-71
2022/09/24 23:06:17;;;;;;;;;;;;;;;11.29;100.00;95300.44;10562084;28;1799;-72
2022/09/24 23:11:21;;;;;;;;;;;;;;;11.10;100.00;95295.03;10571431;28;1849;-70
2022/09/24 23:16:24;;;;;;;;;;;;;;;10.90;100.00;95299.84;10543783;28;1792;-72
2022/09/24 23:21:30;;;;;;;;;;;;;;;10.76;100.00;95305.91;10558637;28;2058;-73
2022/09/24 23:26:33;;;;;;;;;;;;;;;10.73;100.00;95301.09;10560314;28;1726;-73
2022/09/24 23:31:36;;;;;;;;;;;;;;;10.73;100.00;95314.53;10562258;28;1972;-71
2022/09/24 23:36:40;;;;;;;;;;;;;;;10.64;100.00;95308.19;10560386;28;1887;-71
2022/09/24 23:41:44;;;;;;;;;;;;;;;10.57;100.00;95320.38;10561805;28;1941;-72
2022/09/24 23:46:47;;;;;;;;;;;;;;;10.53;100.00;95314.75;10559942;28;1786;-71
2022/09/24 23:51:52;;;;;;;;;;;;;;;10.41;100.00;95312.44;10561901;28;1957;-72
2022/09/24 23:56:55;;;;;;;;;;;;;;;10.32;100.00;95319.53;10568246;28;1925;-72
